EGNX/EMA METAR and TAF weather

Enter ICAO airport designator
Station Type Date Time Source
EGNX METAR 2019/10/21 23:20 UTC NOAA

EGNX 212320Z 24005KT 9999 SCT038 09/07 Q1022


Station Type Date Time Source
EGNX Decoded METAR 2019/10/21 23:20 UTC NOAA

East Midlands, United Kingdom (EGNX) 52-50N 001-20W
Oct 21, 2019 - 07:20 PM EDT / 2019.10.21 2320 UTC
Wind: from the WSW (240 degrees) at 6 MPH (5 KT):0
Visibility: greater than 7 mile(s):0
Sky conditions: partly cloudy
Temperature: 48 F (9 C)
Dew Point: 44 F (7 C)
Relative Humidity: 87%
Pressure (altimeter): 30.18 in. Hg (1022 hPa)
ob: EGNX 212320Z 24005KT 9999 SCT038 09/07 Q1022
cycle: 23

Station Type Date Time Source
EGNX TAF 2019/10/21 23:06 UTC NOAA

TAF
AMD TAF
AMD EGNX 212302Z 2123/2218 VRB03KT 9999 SCT040 PROB40 2200/2210 3000 BR PROB30
TEMPO 2203/2209 0300 FG VV///
BECMG 2207/2210 22010KT

Example: see airport list